sensor_id;sensor_type;location;lat;lon;timestamp;temperature;humidity
20650;DHT22;10484;48.736;9.332;2022-07-18T00:01:29;20.90;1.00
20650;DHT22;10484;48.736;9.332;2022-07-18T00:03:55;20.90;1.00
20650;DHT22;10484;48.736;9.332;2022-07-18T00:06:21;20.80;1.00
20650;DHT22;10484;48.736;9.332;2022-07-18T00:08:47;20.70;1.00
20650;DHT22;10484;48.736;9.332;2022-07-18T00:11:12;20.70;1.00
20650;DHT22;10484;48.736;9.332;2022-07-18T00:13:38;20.70;1.00
20650;DHT22;10484;48.736;9.332;2022-07-18T00:16:04;20.70;1.00
20650;DHT22;10484;48.736;9.332;2022-07-18T00:18:30;20.60;1.00
20650;DHT22;10484;48.736;9.332;2022-07-18T00:20:55;20.60;1.00
20650;DHT22;10484;48.736;9.332;2022-07-18T00:23:21;20.50;1.00
20650;DHT22;10484;48.736;9.332;2022-07-18T00:25:47;20.50;1.00
20650;DHT22;10484;48.736;9.332;2022-07-18T00:28:13;20.40;1.00
20650;DHT22;10484;48.736;9.332;2022-07-18T00:30:39;20.40;1.00
20650;DHT22;10484;48.736;9.332;2022-07-18T00:33:06;20.30;1.00
20650;DHT22;10484;48.736;9.332;2022-07-18T00:35:32;20.20;1.00
20650;DHT22;10484;48.736;9.332;2022-07-18T00:37:58;20.20;1.00
20650;DHT22;10484;48.736;9.332;2022-07-18T00:40:24;20.10;1.00
20650;DHT22;10484;48.736;9.332;2022-07-18T00:42:50;20.10;1.00
20650;DHT22;10484;48.736;9.332;2022-07-18T00:45:15;20.00;1.00
20650;DHT22;10484;48.736;9.332;2022-07-18T00:47:41;19.90;1.00
20650;DHT22;10484;48.736;9.332;2022-07-18T00:50:08;19.90;1.00
20650;DHT22;10484;48.736;9.332;2022-07-18T00:52:34;19.80;1.00
20650;DHT22;10484;48.736;9.332;2022-07-18T00:55:03;19.80;1.00
20650;DHT22;10484;48.736;9.332;2022-07-18T00:57:28;19.70;1.00
20650;DHT22;10484;48.736;9.332;2022-07-18T00:59:54;19.70;1.00
20650;DHT22;10484;48.736;9.332;2022-07-18T01:02:39;19.60;1.00
20650;DHT22;10484;48.736;9.332;2022-07-18T01:05:06;19.50;1.00
20650;DHT22;10484;48.736;9.332;2022-07-18T01:07:33;19.40;1.00
20650;DHT22;10484;48.736;9.332;2022-07-18T01:09:59;19.40;1.00
20650;DHT22;10484;48.736;9.332;2022-07-18T01:12:26;19.30;1.00
20650;DHT22;10484;48.736;9.332;2022-07-18T01:14:52;19.30;1.00
20650;DHT22;10484;48.736;9.332;2022-07-18T01:17:19;19.30;1.00
20650;DHT22;10484;48.736;9.332;2022-07-18T01:19:45;19.30;1.00
20650;DHT22;10484;48.736;9.332;2022-07-18T01:22:13;19.20;1.00
20650;DHT22;10484;48.736;9.332;2022-07-18T01:24:39;19.10;1.00
20650;DHT22;10484;48.736;9.332;2022-07-18T01:27:05;19.10;1.00
20650;DHT22;10484;48.736;9.332;2022-07-18T01:29:31;19.10;1.00
20650;DHT22;10484;48.736;9.332;2022-07-18T01:31:57;19.00;1.00
20650;DHT22;10484;48.736;9.332;2022-07-18T01:34:28;19.00;1.00
20650;DHT22;10484;48.736;9.332;2022-07-18T01:36:54;18.90;1.00
20650;DHT22;10484;48.736;9.332;2022-07-18T01:39:19;18.90;1.00
20650;DHT22;10484;48.736;9.332;2022-07-18T01:41:45;18.80;1.00
20650;DHT22;10484;48.736;9.332;2022-07-18T01:44:11;18.80;1.00
20650;DHT22;10484;48.736;9.332;2022-07-18T01:46:36;18.70;1.00
20650;DHT22;10484;48.736;9.332;2022-07-18T01:49:02;18.60;1.00
20650;DHT22;10484;48.736;9.332;2022-07-18T01:51:28;18.60;1.00
20650;DHT22;10484;48.736;9.332;2022-07-18T01:53:56;18.60;1.00
20650;DHT22;10484;48.736;9.332;2022-07-18T01:56:24;18.60;1.00
20650;DHT22;10484;48.736;9.332;2022-07-18T01:58:49;18.50;1.00
20650;DHT22;10484;48.736;9.332;2022-07-18T02:01:15;18.50;1.00
20650;DHT22;10484;48.736;9.332;2022-07-18T02:03:41;18.40;1.00
20650;DHT22;10484;48.736;9.332;2022-07-18T02:06:06;18.40;1.00
20650;DHT22;10484;48.736;9.332;2022-07-18T02:08:32;18.40;1.00
20650;DHT22;10484;48.736;9.332;2022-07-18T02:10:58;18.30;1.00
20650;DHT22;10484;48.736;9.332;2022-07-18T02:13:24;18.30;1.00
20650;DHT22;10484;48.736;9.332;2022-07-18T02:15:50;18.20;1.00
20650;DHT22;10484;48.736;9.332;2022-07-18T02:18:16;18.20;1.00
20650;DHT22;10484;48.736;9.332;2022-07-18T02:20:42;18.20;1.00
20650;DHT22;10484;48.736;9.332;2022-07-18T02:23:07;18.10;1.00
20650;DHT22;10484;48.736;9.332;2022-07-18T02:25:34;18.10;1.00
20650;DHT22;10484;48.736;9.332;2022-07-18T02:28:00;18.00;1.00
20650;DHT22;10484;48.736;9.332;2022-07-18T02:30:26;18.00;1.00
20650;DHT22;10484;48.736;9.332;2022-07-18T02:32:51;18.00;1.00
20650;DHT22;10484;48.736;9.332;2022-07-18T02:35:17;17.90;1.00
20650;DHT22;10484;48.736;9.332;2022-07-18T02:37:43;17.90;1.00
20650;DHT22;10484;48.736;9.332;2022-07-18T02:40:09;17.90;1.00
20650;DHT22;10484;48.736;9.332;2022-07-18T02:42:36;17.80;1.00
20650;DHT22;10484;48.736;9.332;2022-07-18T02:45:03;17.80;1.00
20650;DHT22;10484;48.736;9.332;2022-07-18T02:47:28;17.80;1.00
20650;DHT22;10484;48.736;9.332;2022-07-18T02:49:54;17.70;1.00
20650;DHT22;10484;48.736;9.332;2022-07-18T02:52:20;17.70;1.00
20650;DHT22;10484;48.736;9.332;2022-07-18T02:54:46;17.60;1.00
20650;DHT22;10484;48.736;9.332;2022-07-18T02:57:12;17.60;1.00
20650;DHT22;10484;48.736;9.332;2022-07-18T02:59:38;17.60;1.00
20650;DHT22;10484;48.736;9.332;2022-07-18T03:02:04;17.50;1.00
20650;DHT22;10484;48.736;9.332;2022-07-18T03:04:30;17.40;1.00
20650;DHT22;10484;48.736;9.332;2022-07-18T03:06:55;17.40;1.00
20650;DHT22;10484;48.736;9.332;2022-07-18T03:09:21;17.30;1.00
20650;DHT22;10484;48.736;9.332;2022-07-18T03:11:47;17.30;1.00
20650;DHT22;10484;48.736;9.332;2022-07-18T03:14:13;17.30;1.00
20650;DHT22;10484;48.736;9.332;2022-07-18T03:16:39;17.20;1.00
20650;DHT22;10484;48.736;9.332;2022-07-18T03:19:05;17.20;1.00
20650;DHT22;10484;48.736;9.332;2022-07-18T03:21:30;17.10;1.00
20650;DHT22;10484;48.736;9.332;2022-07-18T03:23:57;17.10;1.00
20650;DHT22;10484;48.736;9.332;2022-07-18T03:26:22;17.00;1.00
20650;DHT22;10484;48.736;9.332;2022-07-18T03:28:48;17.00;1.00
20650;DHT22;10484;48.736;9.332;2022-07-18T03:31:14;17.00;1.00
20650;DHT22;10484;48.736;9.332;2022-07-18T03:33:40;16.90;1.00
20650;DHT22;10484;48.736;9.332;2022-07-18T03:36:05;16.90;1.00
20650;DHT22;10484;48.736;9.332;2022-07-18T03:38:31;16.90;1.00
20650;DHT22;10484;48.736;9.332;2022-07-18T03:40:57;16.90;1.00
20650;DHT22;10484;48.736;9.332;2022-07-18T03:43:22;16.90;1.00
20650;DHT22;10484;48.736;9.332;2022-07-18T03:45:48;16.80;1.00
20650;DHT22;10484;48.736;9.332;2022-07-18T03:48:14;16.70;1.00
20650;DHT22;10484;48.736;9.332;2022-07-18T03:50:40;16.70;1.00
20650;DHT22;10484;48.736;9.332;2022-07-18T03:53:05;16.60;1.00
20650;DHT22;10484;48.736;9.332;2022-07-18T03:55:31;16.60;1.00
20650;DHT22;10484;48.736;9.332;2022-07-18T03:57:57;16.60;1.00
20650;DHT22;10484;48.736;9.332;2022-07-18T04:00:22;16.50;1.00
20650;DHT22;10484;48.736;9.332;2022-07-18T04:02:48;16.50;1.00
20650;DHT22;10484;48.736;9.332;2022-07-18T04:05:15;16.50;1.00
20650;DHT22;10484;48.736;9.332;2022-07-18T04:07:42;16.50;1.00
20650;DHT22;10484;48.736;9.332;2022-07-18T04:10:09;16.50;1.00
20650;DHT22;10484;48.736;9.332;2022-07-18T04:12:35;16.40;1.00
20650;DHT22;10484;48.736;9.332;2022-07-18T04:15:09;16.40;1.00
20650;DHT22;10484;48.736;9.332;2022-07-18T04:17:35;16.40;1.00
20650;DHT22;10484;48.736;9.332;2022-07-18T04:20:01;16.40;1.00
20650;DHT22;10484;48.736;9.332;2022-07-18T04:22:26;16.40;1.00
20650;DHT22;10484;48.736;9.332;2022-07-18T04:24:52;16.30;1.00
20650;DHT22;10484;48.736;9.332;2022-07-18T04:27:17;16.30;1.00
20650;DHT22;10484;48.736;9.332;2022-07-18T04:29:43;16.30;1.00
20650;DHT22;10484;48.736;9.332;2022-07-18T04:32:08;16.30;1.00
20650;DHT22;10484;48.736;9.332;2022-07-18T04:34:34;16.30;1.00
20650;DHT22;10484;48.736;9.332;2022-07-18T04:37:00;16.30;1.00
20650;DHT22;10484;48.736;9.332;2022-07-18T04:39:25;16.20;1.00
20650;DHT22;10484;48.736;9.332;2022-07-18T04:41:51;16.20;1.00
20650;DHT22;10484;48.736;9.332;2022-07-18T04:44:17;16.20;1.00
20650;DHT22;10484;48.736;9.332;2022-07-18T04:46:42;16.20;1.00
20650;DHT22;10484;48.736;9.332;2022-07-18T04:49:08;16.20;1.00
20650;DHT22;10484;48.736;9.332;2022-07-18T04:51:33;16.20;1.00
20650;DHT22;10484;48.736;9.332;2022-07-18T04:53:59;16.10;1.00
20650;DHT22;10484;48.736;9.332;2022-07-18T04:56:25;16.10;1.00
20650;DHT22;10484;48.736;9.332;2022-07-18T04:58:50;16.10;1.00
20650;DHT22;10484;48.736;9.332;2022-07-18T05:01:16;16.10;1.00
20650;DHT22;10484;48.736;9.332;2022-07-18T05:03:42;16.10;1.00
20650;DHT22;10484;48.736;9.332;2022-07-18T05:06:07;16.10;1.00
20650;DHT22;10484;48.736;9.332;2022-07-18T05:08:33;16.10;1.00
20650;DHT22;10484;48.736;9.332;2022-07-18T05:10:58;16.10;1.00
20650;DHT22;10484;48.736;9.332;2022-07-18T05:13:24;16.10;1.00
20650;DHT22;10484;48.736;9.332;2022-07-18T05:15:50;16.10;1.00
20650;DHT22;10484;48.736;9.332;2022-07-18T05:18:16;16.10;1.00
20650;DHT22;10484;48.736;9.332;2022-07-18T05:20:41;16.10;1.00
20650;DHT22;10484;48.736;9.332;2022-07-18T05:23:07;16.10;1.00
20650;DHT22;10484;48.736;9.332;2022-07-18T05:25:34;16.20;1.00
20650;DHT22;10484;48.736;9.332;2022-07-18T05:27:59;16.20;1.00
20650;DHT22;10484;48.736;9.332;2022-07-18T05:30:25;16.20;1.00
20650;DHT22;10484;48.736;9.332;2022-07-18T05:32:51;16.20;1.00
20650;DHT22;10484;48.736;9.332;2022-07-18T05:35:17;16.20;1.00
20650;DHT22;10484;48.736;9.332;2022-07-18T05:37:43;16.30;1.00
20650;DHT22;10484;48.736;9.332;2022-07-18T05:40:11;16.30;1.00
20650;DHT22;10484;48.736;9.332;2022-07-18T05:42:38;16.30;1.00
20650;DHT22;10484;48.736;9.332;2022-07-18T05:45:05;16.40;1.00
20650;DHT22;10484;48.736;9.332;2022-07-18T05:47:31;16.40;1.00
20650;DHT22;10484;48.736;9.332;2022-07-18T05:49:57;16.40;1.00
20650;DHT22;10484;48.736;9.332;2022-07-18T05:52:22;16.50;1.00
20650;DHT22;10484;48.736;9.332;2022-07-18T05:54:48;16.50;1.00
20650;DHT22;10484;48.736;9.332;2022-07-18T05:57:14;16.60;1.00
20650;DHT22;10484;48.736;9.332;2022-07-18T05:59:39;16.60;1.00
20650;DHT22;10484;48.736;9.332;2022-07-18T06:02:05;16.60;1.00
20650;DHT22;10484;48.736;9.332;2022-07-18T06:04:30;16.70;1.00
20650;DHT22;10484;48.736;9.332;2022-07-18T06:06:56;16.70;1.00
20650;DHT22;10484;48.736;9.332;2022-07-18T06:09:22;16.70;1.00
20650;DHT22;10484;48.736;9.332;2022-07-18T06:11:48;16.70;1.00
20650;DHT22;10484;48.736;9.332;2022-07-18T06:14:14;16.80;1.00
20650;DHT22;10484;48.736;9.332;2022-07-18T06:16:39;16.80;1.00
20650;DHT22;10484;48.736;9.332;2022-07-18T06:19:05;16.80;1.00
20650;DHT22;10484;48.736;9.332;2022-07-18T06:21:31;16.80;1.00
20650;DHT22;10484;48.736;9.332;2022-07-18T06:23:56;16.80;1.00
20650;DHT22;10484;48.736;9.332;2022-07-18T06:26:22;16.90;1.00
20650;DHT22;10484;48.736;9.332;2022-07-18T06:28:48;16.90;1.00
20650;DHT22;10484;48.736;9.332;2022-07-18T06:31:14;16.90;1.00
20650;DHT22;10484;48.736;9.332;2022-07-18T06:33:42;17.00;1.00
20650;DHT22;10484;48.736;9.332;2022-07-18T06:36:08;17.00;1.00
20650;DHT22;10484;48.736;9.332;2022-07-18T06:38:37;17.00;1.00
20650;DHT22;10484;48.736;9.332;2022-07-18T06:41:03;17.00;1.00
20650;DHT22;10484;48.736;9.332;2022-07-18T06:43:29;17.10;1.00
20650;DHT22;10484;48.736;9.332;2022-07-18T06:45:55;17.10;1.00
20650;DHT22;10484;48.736;9.332;2022-07-18T06:48:23;17.10;1.00
20650;DHT22;10484;48.736;9.332;2022-07-18T06:50:48;17.20;1.00
20650;DHT22;10484;48.736;9.332;2022-07-18T06:53:14;17.20;1.00
20650;DHT22;10484;48.736;9.332;2022-07-18T06:55:40;17.20;1.00
20650;DHT22;10484;48.736;9.332;2022-07-18T06:58:05;17.30;1.00
20650;DHT22;10484;48.736;9.332;2022-07-18T07:00:31;17.30;1.00
20650;DHT22;10484;48.736;9.332;2022-07-18T07:02:57;17.30;1.00
20650;DHT22;10484;48.736;9.332;2022-07-18T07:05:22;17.40;1.00
20650;DHT22;10484;48.736;9.332;2022-07-18T07:07:48;17.40;1.00
20650;DHT22;10484;48.736;9.332;2022-07-18T07:10:17;17.50;1.00
20650;DHT22;10484;48.736;9.332;2022-07-18T07:12:45;17.50;1.00
20650;DHT22;10484;48.736;9.332;2022-07-18T07:15:12;17.60;1.00
20650;DHT22;10484;48.736;9.332;2022-07-18T07:17:38;17.70;1.00
20650;DHT22;10484;48.736;9.332;2022-07-18T07:20:05;17.70;1.00
20650;DHT22;10484;48.736;9.332;2022-07-18T07:22:46;17.80;1.00
20650;DHT22;10484;48.736;9.332;2022-07-18T07:25:13;17.80;1.00
20650;DHT22;10484;48.736;9.332;2022-07-18T07:27:39;17.90;1.00
20650;DHT22;10484;48.736;9.332;2022-07-18T07:30:06;17.90;1.00
20650;DHT22;10484;48.736;9.332;2022-07-18T07:32:40;18.00;1.00
20650;DHT22;10484;48.736;9.332;2022-07-18T07:35:08;18.00;1.00
20650;DHT22;10484;48.736;9.332;2022-07-18T07:37:40;18.10;1.00
20650;DHT22;10484;48.736;9.332;2022-07-18T07:40:07;18.20;1.00
20650;DHT22;10484;48.736;9.332;2022-07-18T07:42:33;18.30;1.00
20650;DHT22;10484;48.736;9.332;2022-07-18T07:44:59;18.30;1.00
20650;DHT22;10484;48.736;9.332;2022-07-18T07:47:25;18.40;1.00
20650;DHT22;10484;48.736;9.332;2022-07-18T07:49:50;18.60;1.00
20650;DHT22;10484;48.736;9.332;2022-07-18T07:52:16;18.60;1.00
20650;DHT22;10484;48.736;9.332;2022-07-18T07:54:43;18.70;1.00
20650;DHT22;10484;48.736;9.332;2022-07-18T07:57:12;18.70;1.00
20650;DHT22;10484;48.736;9.332;2022-07-18T07:59:38;18.80;1.00
20650;DHT22;10484;48.736;9.332;2022-07-18T08:02:03;18.90;1.00
20650;DHT22;10484;48.736;9.332;2022-07-18T08:04:29;19.00;1.00
20650;DHT22;10484;48.736;9.332;2022-07-18T08:06:55;19.10;1.00
20650;DHT22;10484;48.736;9.332;2022-07-18T08:09:21;19.20;1.00
20650;DHT22;10484;48.736;9.332;2022-07-18T08:11:47;19.30;1.00
20650;DHT22;10484;48.736;9.332;2022-07-18T08:14:13;19.40;1.00
20650;DHT22;10484;48.736;9.332;2022-07-18T08:16:39;19.60;1.00
20650;DHT22;10484;48.736;9.332;2022-07-18T08:19:04;19.70;1.00
20650;DHT22;10484;48.736;9.332;2022-07-18T08:21:30;19.80;1.00
20650;DHT22;10484;48.736;9.332;2022-07-18T08:23:56;19.90;1.00
20650;DHT22;10484;48.736;9.332;2022-07-18T08:26:22;20.10;1.00
20650;DHT22;10484;48.736;9.332;2022-07-18T08:28:47;20.20;1.00
20650;DHT22;10484;48.736;9.332;2022-07-18T08:31:13;20.30;1.00
20650;DHT22;10484;48.736;9.332;2022-07-18T08:33:39;20.40;1.00
20650;DHT22;10484;48.736;9.332;2022-07-18T08:36:05;20.60;1.00
20650;DHT22;10484;48.736;9.332;2022-07-18T08:38:31;20.70;1.00
20650;DHT22;10484;48.736;9.332;2022-07-18T08:40:57;20.90;1.00
20650;DHT22;10484;48.736;9.332;2022-07-18T08:43:25;21.00;1.00
20650;DHT22;10484;48.736;9.332;2022-07-18T08:45:55;21.20;1.00
20650;DHT22;10484;48.736;9.332;2022-07-18T08:48:22;21.40;1.00
20650;DHT22;10484;48.736;9.332;2022-07-18T08:50:48;21.50;1.00
20650;DHT22;10484;48.736;9.332;2022-07-18T08:53:16;21.70;1.00
20650;DHT22;10484;48.736;9.332;2022-07-18T08:55:43;21.80;1.00
20650;DHT22;10484;48.736;9.332;2022-07-18T08:58:09;22.00;1.00
20650;DHT22;10484;48.736;9.332;2022-07-18T09:00:39;22.10;1.00
20650;DHT22;10484;48.736;9.332;2022-07-18T09:03:05;22.30;1.00
20650;DHT22;10484;48.736;9.332;2022-07-18T09:05:31;22.50;1.00
20650;DHT22;10484;48.736;9.332;2022-07-18T09:08:17;22.60;1.00
20650;DHT22;10484;48.736;9.332;2022-07-18T09:11:01;22.80;1.00
20650;DHT22;10484;48.736;9.332;2022-07-18T09:16:00;23.20;1.00
20650;DHT22;10484;48.736;9.332;2022-07-18T09:18:31;23.40;1.00
20650;DHT22;10484;48.736;9.332;2022-07-18T09:21:06;23.50;1.00
20650;DHT22;10484;48.736;9.332;2022-07-18T09:23:34;23.70;1.00
20650;DHT22;10484;48.736;9.332;2022-07-18T09:26:00;23.90;1.00
20650;DHT22;10484;48.736;9.332;2022-07-18T09:28:27;24.00;1.00
20650;DHT22;10484;48.736;9.332;2022-07-18T09:30:54;24.20;1.00
20650;DHT22;10484;48.736;9.332;2022-07-18T09:33:19;24.30;1.00
20650;DHT22;10484;48.736;9.332;2022-07-18T09:35:51;24.50;1.00
20650;DHT22;10484;48.736;9.332;2022-07-18T09:38:19;24.60;1.00
20650;DHT22;10484;48.736;9.332;2022-07-18T09:40:48;24.80;1.00
20650;DHT22;10484;48.736;9.332;2022-07-18T09:43:18;25.00;1.00
20650;DHT22;10484;48.736;9.332;2022-07-18T09:45:49;25.20;1.00
20650;DHT22;10484;48.736;9.332;2022-07-18T09:48:20;25.30;1.00
20650;DHT22;10484;48.736;9.332;2022-07-18T09:50:52;25.50;1.00
20650;DHT22;10484;48.736;9.332;2022-07-18T09:53:23;25.70;1.00
20650;DHT22;10484;48.736;9.332;2022-07-18T09:55:55;25.80;1.00
20650;DHT22;10484;48.736;9.332;2022-07-18T09:58:23;26.10;1.00
20650;DHT22;10484;48.736;9.332;2022-07-18T10:00:49;26.30;1.00
20650;DHT22;10484;48.736;9.332;2022-07-18T10:03:16;26.50;1.00
20650;DHT22;10484;48.736;9.332;2022-07-18T10:05:43;26.60;1.00
20650;DHT22;10484;48.736;9.332;2022-07-18T10:08:12;26.70;1.00
20650;DHT22;10484;48.736;9.332;2022-07-18T10:10:39;26.90;1.00
20650;DHT22;10484;48.736;9.332;2022-07-18T10:13:06;27.10;1.00
20650;DHT22;10484;48.736;9.332;2022-07-18T10:15:35;27.30;1.00
20650;DHT22;10484;48.736;9.332;2022-07-18T10:18:02;27.40;1.00
20650;DHT22;10484;48.736;9.332;2022-07-18T10:20:41;27.50;1.00
20650;DHT22;10484;48.736;9.332;2022-07-18T10:25:41;27.80;1.00
20650;DHT22;10484;48.736;9.332;2022-07-18T10:28:10;27.90;1.00
20650;DHT22;10484;48.736;9.332;2022-07-18T10:30:46;28.10;1.00
20650;DHT22;10484;48.736;9.332;2022-07-18T10:33:36;28.20;1.00
20650;DHT22;10484;48.736;9.332;2022-07-18T10:36:08;28.40;1.00
20650;DHT22;10484;48.736;9.332;2022-07-18T10:38:34;28.50;1.00
20650;DHT22;10484;48.736;9.332;2022-07-18T10:43:31;28.80;1.00
20650;DHT22;10484;48.736;9.332;2022-07-18T10:45:57;28.90;1.00
20650;DHT22;10484;48.736;9.332;2022-07-18T10:51:05;29.10;1.00
20650;DHT22;10484;48.736;9.332;2022-07-18T10:56:19;29.40;1.00
20650;DHT22;10484;48.736;9.332;2022-07-18T10:58:44;29.50;1.00
20650;DHT22;10484;48.736;9.332;2022-07-18T11:01:16;29.60;1.00
20650;DHT22;10484;48.736;9.332;2022-07-18T11:03:43;29.70;1.00
20650;DHT22;10484;48.736;9.332;2022-07-18T11:06:08;29.90;1.00
20650;DHT22;10484;48.736;9.332;2022-07-18T11:08:35;30.00;1.00
20650;DHT22;10484;48.736;9.332;2022-07-18T11:11:05;30.10;1.00
20650;DHT22;10484;48.736;9.332;2022-07-18T11:13:33;30.20;1.00
20650;DHT22;10484;48.736;9.332;2022-07-18T11:16:20;30.30;1.00
20650;DHT22;10484;48.736;9.332;2022-07-18T11:21:32;30.50;1.00
20650;DHT22;10484;48.736;9.332;2022-07-18T11:24:11;30.60;1.00
20650;DHT22;10484;48.736;9.332;2022-07-18T11:26:43;30.70;1.00
20650;DHT22;10484;48.736;9.332;2022-07-18T11:29:11;30.80;1.00
20650;DHT22;10484;48.736;9.332;2022-07-18T11:32:03;30.90;1.00
20650;DHT22;10484;48.736;9.332;2022-07-18T11:34:30;31.10;1.00
20650;DHT22;10484;48.736;9.332;2022-07-18T11:36:55;31.20;1.00
20650;DHT22;10484;48.736;9.332;2022-07-18T11:39:30;31.30;1.00
20650;DHT22;10484;48.736;9.332;2022-07-18T11:41:56;31.40;1.00
20650;DHT22;10484;48.736;9.332;2022-07-18T11:44:22;31.50;1.00
20650;DHT22;10484;48.736;9.332;2022-07-18T11:47:07;31.60;1.00
20650;DHT22;10484;48.736;9.332;2022-07-18T11:49:34;31.70;1.00
20650;DHT22;10484;48.736;9.332;2022-07-18T11:52:00;31.90;1.00
20650;DHT22;10484;48.736;9.332;2022-07-18T11:54:25;32.00;1.00
20650;DHT22;10484;48.736;9.332;2022-07-18T11:56:54;32.10;1.00
20650;DHT22;10484;48.736;9.332;2022-07-18T11:59:20;32.10;1.00
20650;DHT22;10484;48.736;9.332;2022-07-18T12:01:46;32.20;1.00
20650;DHT22;10484;48.736;9.332;2022-07-18T12:04:22;32.30;1.00
20650;DHT22;10484;48.736;9.332;2022-07-18T12:07:20;32.50;1.00
20650;DHT22;10484;48.736;9.332;2022-07-18T12:09:47;32.60;1.00
20650;DHT22;10484;48.736;9.332;2022-07-18T12:12:15;32.70;1.00
20650;DHT22;10484;48.736;9.332;2022-07-18T12:14:41;32.80;1.00
20650;DHT22;10484;48.736;9.332;2022-07-18T12:17:06;32.90;1.00
20650;DHT22;10484;48.736;9.332;2022-07-18T12:19:39;33.00;1.00
20650;DHT22;10484;48.736;9.332;2022-07-18T12:22:06;33.00;1.00
20650;DHT22;10484;48.736;9.332;2022-07-18T12:24:52;33.10;1.00
20650;DHT22;10484;48.736;9.332;2022-07-18T12:27:22;33.00;1.00
20650;DHT22;10484;48.736;9.332;2022-07-18T12:37:36;33.50;1.00
20650;DHT22;10484;48.736;9.332;2022-07-18T12:40:05;33.50;1.00
20650;DHT22;10484;48.736;9.332;2022-07-18T12:42:34;33.70;1.00
20650;DHT22;10484;48.736;9.332;2022-07-18T12:45:00;33.80;1.00
20650;DHT22;10484;48.736;9.332;2022-07-18T12:47:26;33.90;1.00
20650;DHT22;10484;48.736;9.332;2022-07-18T12:49:52;34.00;1.00
20650;DHT22;10484;48.736;9.332;2022-07-18T12:52:18;34.10;1.00
20650;DHT22;10484;48.736;9.332;2022-07-18T12:54:45;34.20;1.00
20650;DHT22;10484;48.736;9.332;2022-07-18T12:57:11;34.30;1.00
20650;DHT22;10484;48.736;9.332;2022-07-18T12:59:37;34.40;1.00
20650;DHT22;10484;48.736;9.332;2022-07-18T13:02:04;34.50;1.00
20650;DHT22;10484;48.736;9.332;2022-07-18T13:04:29;34.50;1.00
20650;DHT22;10484;48.736;9.332;2022-07-18T13:06:55;34.60;1.00
20650;DHT22;10484;48.736;9.332;2022-07-18T13:09:22;34.70;1.00
20650;DHT22;10484;48.736;9.332;2022-07-18T13:11:49;34.80;1.00
20650;DHT22;10484;48.736;9.332;2022-07-18T13:14:15;34.70;1.00
20650;DHT22;10484;48.736;9.332;2022-07-18T13:16:42;34.80;1.00
20650;DHT22;10484;48.736;9.332;2022-07-18T13:19:12;34.80;1.00
20650;DHT22;10484;48.736;9.332;2022-07-18T13:21:38;34.90;1.00
20650;DHT22;10484;48.736;9.332;2022-07-18T13:24:04;35.00;1.00
20650;DHT22;10484;48.736;9.332;2022-07-18T13:26:30;34.90;1.00
20650;DHT22;10484;48.736;9.332;2022-07-18T13:28:56;34.80;1.00
20650;DHT22;10484;48.736;9.332;2022-07-18T13:31:21;34.90;1.00
20650;DHT22;10484;48.736;9.332;2022-07-18T13:33:47;35.00;1.00
20650;DHT22;10484;48.736;9.332;2022-07-18T13:36:14;35.10;1.00
20650;DHT22;10484;48.736;9.332;2022-07-18T13:38:40;35.20;1.00
20650;DHT22;10484;48.736;9.332;2022-07-18T13:41:05;35.40;1.00
20650;DHT22;10484;48.736;9.332;2022-07-18T13:43:31;35.50;1.00
20650;DHT22;10484;48.736;9.332;2022-07-18T13:45:57;35.60;1.00
20650;DHT22;10484;48.736;9.332;2022-07-18T13:48:22;35.70;1.00
20650;DHT22;10484;48.736;9.332;2022-07-18T13:50:48;35.80;1.00
20650;DHT22;10484;48.736;9.332;2022-07-18T13:53:14;35.90;1.00
20650;DHT22;10484;48.736;9.332;2022-07-18T13:55:39;35.90;1.00
20650;DHT22;10484;48.736;9.332;2022-07-18T13:58:05;36.10;1.00
20650;DHT22;10484;48.736;9.332;2022-07-18T14:00:31;36.10;1.00
20650;DHT22;10484;48.736;9.332;2022-07-18T14:02:56;36.20;1.00
20650;DHT22;10484;48.736;9.332;2022-07-18T14:05:22;36.10;1.00
20650;DHT22;10484;48.736;9.332;2022-07-18T14:07:48;36.10;1.00
20650;DHT22;10484;48.736;9.332;2022-07-18T14:10:14;36.10;1.00
20650;DHT22;10484;48.736;9.332;2022-07-18T14:12:41;36.10;1.00
20650;DHT22;10484;48.736;9.332;2022-07-18T14:15:07;36.20;1.00
20650;DHT22;10484;48.736;9.332;2022-07-18T14:17:34;36.20;1.00
20650;DHT22;10484;48.736;9.332;2022-07-18T14:20:00;36.30;1.00
20650;DHT22;10484;48.736;9.332;2022-07-18T14:22:25;36.40;1.00
20650;DHT22;10484;48.736;9.332;2022-07-18T14:24:51;36.40;1.00
20650;DHT22;10484;48.736;9.332;2022-07-18T14:27:17;36.50;1.00
20650;DHT22;10484;48.736;9.332;2022-07-18T14:29:42;36.50;1.00
20650;DHT22;10484;48.736;9.332;2022-07-18T14:32:08;36.40;1.00
20650;DHT22;10484;48.736;9.332;2022-07-18T14:34:34;36.40;1.00
20650;DHT22;10484;48.736;9.332;2022-07-18T14:37:00;36.40;1.00
20650;DHT22;10484;48.736;9.332;2022-07-18T14:39:26;36.40;1.00
20650;DHT22;10484;48.736;9.332;2022-07-18T14:41:52;36.50;1.00
20650;DHT22;10484;48.736;9.332;2022-07-18T14:44:17;36.40;1.00
20650;DHT22;10484;48.736;9.332;2022-07-18T14:46:43;36.50;1.00
20650;DHT22;10484;48.736;9.332;2022-07-18T14:49:09;36.50;1.00
20650;DHT22;10484;48.736;9.332;2022-07-18T14:51:35;36.60;1.00
20650;DHT22;10484;48.736;9.332;2022-07-18T14:54:00;36.50;1.00
20650;DHT22;10484;48.736;9.332;2022-07-18T14:56:26;36.50;1.00
20650;DHT22;10484;48.736;9.332;2022-07-18T14:58:53;36.50;1.00
20650;DHT22;10484;48.736;9.332;2022-07-18T15:01:19;36.50;1.00
20650;DHT22;10484;48.736;9.332;2022-07-18T15:03:46;36.50;1.00
20650;DHT22;10484;48.736;9.332;2022-07-18T15:06:12;36.50;1.00
20650;DHT22;10484;48.736;9.332;2022-07-18T15:08:38;36.50;1.00
20650;DHT22;10484;48.736;9.332;2022-07-18T15:11:03;36.50;1.00
20650;DHT22;10484;48.736;9.332;2022-07-18T15:13:29;36.50;1.00
20650;DHT22;10484;48.736;9.332;2022-07-18T15:15:55;36.50;1.00
20650;DHT22;10484;48.736;9.332;2022-07-18T15:18:20;36.40;1.00
20650;DHT22;10484;48.736;9.332;2022-07-18T15:20:46;36.40;1.00
20650;DHT22;10484;48.736;9.332;2022-07-18T15:23:12;36.40;1.00
20650;DHT22;10484;48.736;9.332;2022-07-18T15:25:38;36.40;1.00
20650;DHT22;10484;48.736;9.332;2022-07-18T15:28:03;36.40;1.00
20650;DHT22;10484;48.736;9.332;2022-07-18T15:30:29;36.40;1.00
20650;DHT22;10484;48.736;9.332;2022-07-18T15:32:54;36.30;1.00
20650;DHT22;10484;48.736;9.332;2022-07-18T15:35:20;36.30;1.00
20650;DHT22;10484;48.736;9.332;2022-07-18T15:37:46;36.30;1.00
20650;DHT22;10484;48.736;9.332;2022-07-18T15:40:11;36.30;1.00
20650;DHT22;10484;48.736;9.332;2022-07-18T15:42:37;36.20;1.00
20650;DHT22;10484;48.736;9.332;2022-07-18T15:45:03;36.20;1.00
20650;DHT22;10484;48.736;9.332;2022-07-18T15:47:29;36.10;1.00
20650;DHT22;10484;48.736;9.332;2022-07-18T15:49:55;35.90;1.00
20650;DHT22;10484;48.736;9.332;2022-07-18T15:52:20;35.50;1.00
20650;DHT22;10484;48.736;9.332;2022-07-18T15:54:46;35.30;1.00
20650;DHT22;10484;48.736;9.332;2022-07-18T15:57:14;35.10;1.00
20650;DHT22;10484;48.736;9.332;2022-07-18T15:59:40;35.10;1.00
20650;DHT22;10484;48.736;9.332;2022-07-18T16:02:05;35.10;1.00
20650;DHT22;10484;48.736;9.332;2022-07-18T16:04:32;35.20;1.00
20650;DHT22;10484;48.736;9.332;2022-07-18T16:06:58;35.30;1.00